08MD weather

St Joseph Hospital Heliport
Towson, Maryland, United States

Public forecast

Using degrees Fahrenheit for public forecast. Weather courtesy of forecast.io.

Closest aviation weather report (METAR) to St Joseph Hospital Heliport

Closest report is Martin State Airport, 9.9 nm (18.2 km) ESE. Retrieved 2019/11/21 21:54 UTC (1 hour ago):

KMTN 212154Z 14005KT 10SM BKN180 08/03 A3015

Closest aviation forecast (TAF) to St Joseph Hospital Heliport

Closest forecast is Martin State Airport, 9.9 nm (18.2 km) ESE. Retrieved 2019/11/21 18:39 UTC (4 hours ago):

TAF KMTN 211736Z 2118/2218 VRB03KT P6SM SCT250 FM220200 19007KT P6SM BKN120 FM221400 24007KT P6SM BKN060 FM221700 27010G17KT P6SM -SHRA BKN040